createdAt,value
2023-02-17T00:01:38.504Z,6.17
2023-02-17T00:04:06.577Z,6.12
2023-02-17T00:06:35.037Z,6.14
2023-02-17T00:09:03.811Z,6.20
2023-02-17T00:11:31.963Z,6.16
2023-02-17T00:14:00.852Z,6.12
2023-02-17T00:16:30.391Z,6.08
2023-02-17T00:18:59.337Z,6.10
2023-02-17T00:21:30.175Z,6.10
2023-02-17T00:23:58.335Z,6.11
2023-02-17T00:26:26.427Z,6.09
2023-02-17T00:28:54.626Z,6.09
2023-02-17T00:31:24.011Z,6.10
2023-02-17T00:33:55.362Z,6.11
2023-02-17T00:36:23.452Z,6.09
2023-02-17T00:38:51.611Z,6.08
2023-02-17T00:41:19.933Z,6.05
2023-02-17T00:43:48.274Z,6.06
2023-02-17T00:46:17.343Z,6.07
2023-02-17T00:48:47.138Z,6.07
2023-02-17T00:51:16.771Z,6.06
2023-02-17T00:53:44.874Z,6.13
2023-02-17T00:56:13.009Z,6.14
2023-02-17T00:58:41.628Z,6.10
2023-02-17T01:01:10.220Z,6.21
2023-02-17T01:03:42.222Z,6.25
2023-02-17T01:06:11.818Z,6.28
2023-02-17T01:08:43.338Z,6.24
2023-02-17T01:11:18.581Z,6.22
2023-02-17T01:13:46.768Z,6.26
2023-02-17T01:16:19.048Z,6.31
2023-02-17T01:18:47.175Z,6.34
2023-02-17T01:21:19.038Z,6.31
2023-02-17T01:23:49.793Z,6.32
2023-02-17T01:26:18.710Z,6.32
2023-02-17T01:28:47.078Z,6.38
2023-02-17T01:31:15.312Z,6.40
2023-02-17T01:33:43.426Z,6.37
2023-02-17T01:36:12.579Z,6.37
2023-02-17T01:38:41.636Z,6.38
2023-02-17T01:41:11.314Z,6.38
2023-02-17T01:43:39.438Z,6.38
2023-02-17T01:46:08.110Z,6.42
2023-02-17T01:48:38.038Z,6.40
2023-02-17T01:51:07.753Z,6.38
2023-02-17T01:53:36.980Z,6.28
2023-02-17T01:56:05.789Z,6.24
2023-02-17T01:58:35.523Z,6.24
2023-02-17T02:01:05.117Z,6.21
2023-02-17T02:03:34.550Z,6.22
2023-02-17T02:06:03.259Z,6.21
2023-02-17T02:08:35.714Z,6.17
2023-02-17T02:11:03.837Z,6.13
2023-02-17T02:13:31.997Z,6.12
2023-02-17T02:16:11.265Z,6.08
2023-02-17T02:18:45.321Z,6.12
2023-02-17T02:21:57.867Z,6.09
2023-02-17T02:24:30.018Z,6.09
2023-02-17T02:27:30.800Z,6.09
2023-02-17T02:30:22.777Z,6.07
2023-02-17T02:32:59.078Z,6.14
2023-02-17T02:35:31.045Z,6.17
2023-02-17T02:38:01.859Z,6.18
2023-02-17T02:40:32.649Z,6.27
2023-02-17T02:43:02.073Z,6.33
2023-02-17T02:45:30.501Z,6.31
2023-02-17T02:48:00.217Z,6.27
2023-02-17T02:50:35.982Z,6.30
2023-02-17T02:53:24.728Z,6.28
2023-02-17T02:55:54.410Z,6.31
2023-02-17T02:58:23.857Z,6.32
2023-02-17T03:00:58.175Z,6.36
2023-02-17T03:03:30.597Z,6.36
2023-02-17T03:06:01.174Z,6.34
2023-02-17T03:08:33.177Z,6.32
2023-02-17T03:11:01.672Z,6.27
2023-02-17T03:13:34.125Z,6.21
2023-02-17T03:16:02.257Z,6.15
2023-02-17T03:18:33.081Z,6.14
2023-02-17T03:21:03.429Z,6.08
2023-02-17T03:23:31.970Z,6.07
2023-02-17T03:26:00.084Z,6.04
2023-02-17T03:28:28.178Z,6.01
2023-02-17T03:30:57.706Z,6.01
2023-02-17T03:33:25.793Z,5.99
2023-02-17T03:35:55.261Z,5.99
2023-02-17T03:38:23.591Z,5.97
2023-02-17T03:40:53.228Z,5.99
2023-02-17T03:43:21.645Z,5.97
2023-02-17T03:45:50.065Z,5.96
2023-02-17T03:48:18.336Z,5.94
2023-02-17T03:50:46.411Z,5.95
2023-02-17T03:53:15.901Z,5.94
2023-02-17T03:55:43.929Z,5.91
2023-02-17T03:58:12.333Z,5.88
2023-02-17T04:00:40.447Z,5.87
2023-02-17T04:03:08.559Z,5.85
2023-02-17T04:05:36.669Z,5.83
2023-02-17T04:08:04.746Z,5.82
2023-02-17T04:10:34.227Z,5.79
2023-02-17T04:13:02.694Z,5.78
2023-02-17T04:15:30.995Z,5.77
2023-02-17T04:17:59.121Z,5.76
2023-02-17T04:20:27.194Z,5.75
2023-02-17T04:22:55.301Z,5.75
2023-02-17T04:25:23.688Z,5.77
2023-02-17T04:27:53.423Z,5.75
2023-02-17T04:30:21.641Z,5.75
2023-02-17T04:32:49.795Z,5.73
2023-02-17T04:35:18.270Z,5.71
2023-02-17T04:37:46.379Z,5.72
2023-02-17T04:40:15.087Z,5.73
2023-02-17T04:42:43.171Z,5.73
2023-02-17T04:45:12.681Z,5.78
2023-02-17T04:47:40.868Z,5.79
2023-02-17T04:50:09.700Z,5.77
2023-02-17T04:52:38.246Z,5.78
2023-02-17T04:55:07.082Z,5.80
2023-02-17T04:57:35.183Z,5.81
2023-02-17T05:00:03.376Z,5.80
2023-02-17T05:02:32.896Z,5.80
2023-02-17T05:05:01.309Z,5.79
2023-02-17T05:07:29.457Z,5.78
2023-02-17T05:09:57.552Z,5.77
2023-02-17T05:12:25.673Z,5.80
2023-02-17T05:14:53.944Z,5.80
2023-02-17T05:17:21.999Z,5.80
2023-02-17T05:19:51.802Z,5.82
2023-02-17T05:22:19.860Z,5.83
2023-02-17T05:24:47.991Z,5.80
2023-02-17T05:27:16.094Z,5.81
2023-02-17T05:29:44.984Z,5.83
2023-02-17T05:32:17.350Z,5.84
2023-02-17T05:34:45.595Z,5.83
2023-02-17T05:37:15.091Z,5.82
2023-02-17T05:39:43.238Z,5.82
2023-02-17T05:42:11.520Z,5.83
2023-02-17T05:44:39.642Z,5.84
2023-02-17T05:47:08.103Z,5.80
2023-02-17T05:49:36.267Z,5.83
2023-02-17T05:52:04.392Z,5.83
2023-02-17T05:54:34.046Z,5.83
2023-02-17T05:57:02.119Z,5.87
2023-02-17T05:59:30.212Z,5.85
2023-02-17T06:01:58.308Z,5.89
2023-02-17T06:04:26.423Z,5.89
2023-02-17T06:06:54.568Z,5.88
2023-02-17T06:09:22.684Z,5.86
2023-02-17T06:11:52.169Z,5.87
2023-02-17T06:14:20.578Z,5.91
2023-02-17T06:16:48.746Z,5.93
2023-02-17T06:19:16.887Z,5.95
2023-02-17T06:21:45.006Z,5.95
2023-02-17T06:24:13.098Z,5.93
2023-02-17T06:26:41.160Z,5.91
2023-02-17T06:29:10.945Z,5.91
2023-02-17T06:31:39.281Z,5.90
2023-02-17T06:34:07.532Z,5.92
2023-02-17T06:36:35.681Z,5.92
2023-02-17T06:39:04.129Z,5.96
2023-02-17T06:41:32.273Z,5.95
2023-02-17T06:44:00.413Z,5.94
2023-02-17T06:46:29.942Z,5.95
2023-02-17T06:48:58.067Z,5.96
2023-02-17T06:51:26.205Z,5.94
2023-02-17T06:53:54.310Z,5.96
2023-02-17T06:56:22.405Z,5.99
2023-02-17T06:58:50.609Z,6.00
2023-02-17T07:01:19.435Z,6.04
2023-02-17T07:03:48.952Z,6.07
2023-02-17T07:06:17.096Z,6.08
2023-02-17T07:08:45.483Z,6.11
2023-02-17T07:11:14.580Z,6.16
2023-02-17T07:13:42.718Z,6.16
2023-02-17T07:16:11.321Z,6.20
2023-02-17T07:18:39.426Z,6.22
2023-02-17T07:21:09.970Z,6.20
2023-02-17T07:23:38.319Z,6.23
2023-02-17T07:26:08.501Z,6.21
2023-02-17T07:28:36.827Z,6.24
2023-02-17T07:31:08.331Z,6.26
2023-02-17T07:33:36.450Z,6.24
2023-02-17T07:36:09.344Z,6.26
2023-02-17T07:38:37.568Z,6.32
2023-02-17T07:41:07.248Z,6.32
2023-02-17T07:43:35.361Z,6.35
2023-02-17T07:46:05.379Z,6.40
2023-02-17T07:48:34.034Z,6.42
2023-02-17T07:51:06.058Z,6.44
2023-02-17T07:53:35.584Z,6.46
2023-02-17T07:56:04.308Z,6.48
2023-02-17T07:58:33.002Z,6.51
2023-02-17T08:01:05.959Z,6.56
2023-02-17T08:03:34.066Z,6.59
2023-02-17T08:06:02.241Z,6.60
2023-02-17T08:08:47.542Z,6.66
2023-02-17T08:11:35.361Z,6.68
2023-02-17T08:14:05.393Z,6.74
2023-02-17T08:16:33.794Z,6.78
2023-02-17T08:19:01.923Z,6.82
2023-02-17T08:21:30.067Z,6.82
2023-02-17T08:23:58.342Z,6.84
2023-02-17T08:26:28.446Z,6.88
2023-02-17T08:28:57.465Z,6.94
2023-02-17T08:31:26.881Z,6.99
2023-02-17T08:33:55.487Z,7.00
2023-02-17T08:36:25.225Z,7.01
2023-02-17T08:38:53.792Z,7.06
2023-02-17T08:41:22.946Z,7.12
2023-02-17T08:43:52.761Z,7.16
2023-02-17T08:46:20.904Z,7.22
2023-02-17T08:48:49.454Z,7.23
2023-02-17T08:51:18.613Z,7.28
2023-02-17T08:53:46.981Z,7.32
2023-02-17T08:56:15.528Z,7.39
2023-02-17T08:58:43.625Z,7.44
2023-02-17T09:01:13.365Z,7.48
2023-02-17T09:03:41.789Z,7.49
2023-02-17T09:06:10.068Z,7.51
2023-02-17T09:08:39.388Z,7.53
2023-02-17T09:11:09.627Z,7.52
2023-02-17T09:13:38.002Z,7.53
2023-02-17T09:16:06.734Z,7.52
2023-02-17T09:18:36.693Z,7.52
2023-02-17T09:21:07.936Z,7.52
2023-02-17T09:23:36.539Z,7.53
2023-02-17T09:26:06.617Z,7.55
2023-02-17T09:28:35.167Z,7.54
2023-02-17T09:31:09.813Z,7.57
2023-02-17T09:33:39.471Z,7.57
2023-02-17T09:36:09.072Z,7.62
2023-02-17T09:38:38.553Z,7.64
2023-02-17T09:41:10.677Z,7.64
2023-02-17T09:43:39.191Z,7.65
2023-02-17T09:46:10.421Z,7.68
2023-02-17T09:48:40.095Z,7.69
2023-02-17T09:51:12.443Z,7.74
2023-02-17T09:53:43.621Z,7.80
2023-02-17T09:56:12.861Z,7.86
2023-02-17T09:58:42.269Z,7.89
2023-02-17T10:01:12.370Z,7.92
2023-02-17T10:03:42.962Z,7.93
2023-02-17T10:06:14.444Z,7.97
2023-02-17T10:08:47.698Z,7.98
2023-02-17T10:11:19.958Z,7.98
2023-02-17T10:13:48.414Z,7.97
2023-02-17T10:16:19.554Z,7.94
2023-02-17T10:18:50.670Z,7.96
2023-02-17T10:21:22.186Z,7.96
2023-02-17T10:23:51.451Z,7.97
2023-02-17T10:26:24.338Z,7.99
2023-02-17T10:28:53.412Z,8.01
2023-02-17T10:31:38.231Z,8.04
2023-02-17T10:34:14.823Z,8.04
2023-02-17T10:36:52.036Z,8.04
2023-02-17T10:39:30.257Z,8.05
2023-02-17T10:41:58.408Z,8.05
2023-02-17T10:44:26.616Z,8.08
2023-02-17T10:46:55.094Z,8.10
2023-02-17T10:49:27.593Z,8.08
2023-02-17T10:51:56.140Z,8.13
2023-02-17T10:54:29.498Z,8.12
2023-02-17T10:56:58.524Z,8.13
2023-02-17T10:59:29.046Z,8.15
2023-02-17T11:01:59.615Z,8.17
2023-02-17T11:04:29.194Z,8.20
2023-02-17T11:06:57.342Z,8.22
2023-02-17T11:09:28.842Z,8.23
2023-02-17T11:12:00.407Z,8.20
2023-02-17T11:14:29.546Z,8.22
2023-02-17T11:16:59.496Z,8.22
2023-02-17T11:19:30.533Z,8.23
2023-02-17T11:21:59.828Z,8.24
2023-02-17T11:24:28.380Z,8.22
2023-02-17T11:26:57.821Z,8.23
2023-02-17T11:29:26.312Z,8.22
2023-02-17T11:31:59.946Z,8.22
2023-02-17T11:34:30.722Z,8.20
2023-02-17T11:37:00.188Z,8.19
2023-02-17T11:39:28.282Z,8.19
2023-02-17T11:41:57.844Z,8.18
2023-02-17T11:44:26.804Z,8.18
2023-02-17T11:47:07.841Z,8.19
2023-02-17T11:49:56.644Z,8.24
2023-02-17T11:52:35.315Z,8.25
2023-02-17T11:55:10.597Z,8.26
2023-02-17T11:57:40.475Z,8.28
2023-02-17T12:00:16.242Z,8.30
2023-02-17T12:02:52.230Z,8.33
2023-02-17T12:05:25.356Z,8.36
2023-02-17T12:08:13.802Z,8.39
2023-02-17T12:10:47.510Z,8.39
2023-02-17T12:13:23.779Z,8.39
2023-02-17T12:15:57.016Z,8.41
2023-02-17T12:18:35.921Z,8.41
2023-02-17T12:21:09.896Z,8.40
2023-02-17T12:24:17.902Z,8.42
2023-02-17T12:26:47.347Z,8.44
2023-02-17T12:29:23.618Z,8.49
2023-02-17T12:32:13.528Z,8.48
2023-02-17T12:34:42.978Z,8.47
2023-02-17T12:37:17.669Z,8.49
2023-02-17T12:39:47.090Z,8.52
2023-02-17T12:42:17.847Z,8.56
2023-02-17T12:44:47.266Z,8.58
2023-02-17T12:47:16.817Z,8.59
2023-02-17T12:49:46.546Z,8.57
2023-02-17T12:52:19.252Z,8.58
2023-02-17T12:54:49.708Z,8.58
2023-02-17T12:57:19.151Z,8.59
2023-02-17T12:59:47.974Z,8.59
2023-02-17T13:02:16.976Z,8.61
2023-02-17T13:04:46.321Z,8.64
2023-02-17T13:07:24.419Z,8.67
2023-02-17T13:09:52.586Z,8.70
2023-02-17T13:12:39.125Z,8.74
2023-02-17T13:15:08.583Z,8.73
2023-02-17T13:17:39.286Z,8.74
2023-02-17T13:20:29.043Z,8.75
2023-02-17T13:23:09.847Z,8.82
2023-02-17T13:25:38.263Z,8.82
2023-02-17T13:28:18.754Z,8.86
2023-02-17T13:30:48.797Z,8.89
2023-02-17T13:33:29.606Z,8.89
2023-02-17T13:35:57.737Z,8.90
2023-02-17T13:38:31.409Z,8.90
2023-02-17T13:41:01.594Z,8.92
2023-02-17T13:43:30.988Z,8.96
2023-02-17T13:45:59.754Z,8.96
2023-02-17T13:48:30.693Z,8.98
2023-02-17T13:50:59.057Z,9.01
2023-02-17T13:53:30.627Z,9.00
2023-02-17T13:55:59.663Z,9.00
2023-02-17T13:58:29.882Z,9.00
2023-02-17T14:00:58.939Z,9.01
2023-02-17T14:03:27.669Z,8.99
2023-02-17T14:05:56.355Z,8.99
2023-02-17T14:08:31.066Z,9.00
2023-02-17T14:10:59.236Z,8.98
2023-02-17T14:13:27.987Z,8.99
2023-02-17T14:15:57.144Z,9.00
2023-02-17T14:18:33.397Z,8.99
2023-02-17T14:21:03.038Z,8.97
2023-02-17T14:23:41.660Z,9.00
2023-02-17T14:26:16.908Z,9.02
2023-02-17T14:28:54.125Z,9.05
2023-02-17T14:31:22.718Z,9.04
2023-02-17T14:33:55.626Z,9.04
2023-02-17T14:36:30.934Z,9.04
2023-02-17T14:39:00.860Z,9.02
2023-02-17T14:41:29.017Z,9.02
2023-02-17T14:43:57.207Z,9.03
2023-02-17T14:46:25.328Z,9.05
2023-02-17T14:48:53.644Z,9.07
2023-02-17T14:51:22.618Z,9.10
2023-02-17T14:53:51.076Z,9.09
2023-02-17T14:56:22.607Z,9.11
2023-02-17T14:58:50.842Z,9.09
2023-02-17T15:01:19.576Z,9.07
2023-02-17T15:03:48.586Z,9.06
2023-02-17T15:06:17.637Z,9.06
2023-02-17T15:08:46.485Z,9.07
2023-02-17T15:11:19.234Z,9.07
2023-02-17T15:13:48.762Z,9.08
2023-02-17T15:16:17.245Z,9.12
2023-02-17T15:18:45.455Z,9.14
2023-02-17T15:21:25.411Z,9.17
2023-02-17T15:23:53.628Z,9.21
2023-02-17T15:26:21.892Z,9.24
2023-02-17T15:28:51.375Z,9.25
2023-02-17T15:31:20.933Z,9.25
2023-02-17T15:33:53.233Z,9.28
2023-02-17T15:36:22.017Z,9.29
2023-02-17T15:38:50.920Z,9.30
2023-02-17T15:41:22.993Z,9.29
2023-02-17T15:43:52.893Z,9.34
2023-02-17T15:46:21.790Z,9.37
2023-02-17T15:48:50.028Z,9.40
2023-02-17T15:51:19.890Z,9.42
2023-02-17T15:53:48.164Z,9.40
2023-02-17T15:56:19.136Z,9.39
2023-02-17T15:58:48.903Z,9.39
2023-02-17T16:01:29.213Z,9.45
2023-02-17T16:03:57.539Z,9.46
2023-02-17T16:06:25.854Z,9.46
2023-02-17T16:08:54.168Z,9.47
2023-02-17T16:18:50.968Z,9.56
2023-02-17T16:21:19.172Z,9.60
2023-02-17T16:23:47.328Z,9.62
2023-02-17T16:26:21.702Z,9.62
2023-02-17T16:28:49.876Z,9.57
2023-02-17T16:31:18.053Z,9.57
2023-02-17T16:33:46.270Z,9.58
2023-02-17T16:36:17.591Z,9.59
2023-02-17T16:38:45.804Z,9.64
2023-02-17T16:41:15.330Z,9.69
2023-02-17T16:43:43.489Z,9.73
2023-02-17T16:46:20.485Z,9.71
2023-02-17T16:48:49.060Z,9.71
2023-02-17T16:51:18.540Z,9.74
2023-02-17T16:53:47.023Z,9.78
2023-02-17T16:56:17.210Z,9.76
2023-02-17T16:58:45.357Z,9.77
2023-02-17T17:01:13.730Z,9.77
2023-02-17T17:03:41.963Z,9.79
2023-02-17T17:06:19.680Z,9.80
2023-02-17T17:08:48.071Z,9.78
2023-02-17T17:11:20.041Z,9.76
2023-02-17T17:13:48.351Z,9.76
2023-02-17T17:16:17.598Z,9.77
2023-02-17T17:18:45.720Z,9.76
2023-02-17T17:21:14.603Z,9.75
2023-02-17T17:23:46.382Z,9.73
2023-02-17T17:26:19.633Z,9.76
2023-02-17T17:28:49.145Z,9.74
2023-02-17T17:31:17.531Z,9.71
2023-02-17T17:33:46.240Z,9.71
2023-02-17T17:36:16.800Z,9.76
2023-02-17T17:38:46.352Z,9.80
2023-02-17T17:41:14.932Z,9.74
2023-02-17T17:43:45.149Z,9.72
2023-02-17T17:46:14.605Z,9.71
2023-02-17T17:48:42.830Z,9.70
2023-02-17T17:51:11.345Z,9.72
2023-02-17T17:53:39.947Z,9.75
2023-02-17T17:56:11.847Z,9.72
2023-02-17T17:58:40.168Z,9.74
2023-02-17T18:01:08.573Z,9.74
2023-02-17T18:03:36.756Z,9.77
2023-02-17T18:06:05.242Z,9.82
2023-02-17T18:08:33.903Z,9.81
2023-02-17T18:11:02.644Z,9.82
2023-02-17T18:13:32.144Z,9.83
2023-02-17T18:16:00.663Z,9.84
2023-02-17T18:18:29.512Z,9.84
2023-02-17T18:20:57.904Z,9.82
2023-02-17T18:23:26.232Z,9.83
2023-02-17T18:25:54.419Z,9.87
2023-02-17T18:28:23.268Z,9.85
2023-02-17T18:30:53.156Z,9.87
2023-02-17T18:33:21.352Z,9.84
2023-02-17T18:35:49.488Z,9.86
2023-02-17T18:38:17.561Z,9.84
2023-02-17T18:40:46.719Z,9.84
2023-02-17T18:43:17.169Z,9.86
2023-02-17T18:45:49.025Z,9.82
2023-02-17T18:48:18.875Z,9.82
2023-02-17T18:50:47.041Z,9.85
2023-02-17T18:53:15.850Z,9.85
2023-02-17T18:55:44.270Z,9.84
2023-02-17T18:58:13.001Z,9.83
2023-02-17T19:00:41.214Z,9.87
2023-02-17T19:03:09.321Z,9.83
2023-02-17T19:05:39.373Z,9.83
2023-02-17T19:08:08.654Z,9.83
2023-02-17T19:10:36.756Z,9.79
2023-02-17T19:13:05.488Z,9.76
2023-02-17T19:15:34.129Z,9.74
2023-02-17T19:18:02.345Z,9.72
2023-02-17T19:20:31.353Z,9.69
2023-02-17T19:23:02.478Z,9.67
2023-02-17T19:25:30.583Z,9.69
2023-02-17T19:27:58.703Z,9.67
2023-02-17T19:30:26.833Z,9.67
2023-02-17T19:32:54.980Z,9.71
2023-02-17T19:35:23.108Z,9.71
2023-02-17T19:37:51.512Z,9.72
2023-02-17T19:40:21.250Z,9.74
2023-02-17T19:42:49.343Z,9.74
2023-02-17T19:45:17.645Z,9.78
2023-02-17T19:47:46.258Z,9.83
2023-02-17T19:50:17.232Z,9.82
2023-02-17T19:52:45.788Z,9.81
2023-02-17T19:55:13.874Z,9.83
2023-02-17T19:57:43.412Z,9.79
2023-02-17T20:00:12.251Z,9.79
2023-02-17T20:02:41.055Z,9.81
2023-02-17T20:05:10.145Z,9.84
2023-02-17T20:07:38.395Z,9.83
2023-02-17T20:10:09.111Z,9.82
2023-02-17T20:12:37.237Z,9.78
2023-02-17T20:15:07.400Z,9.71
2023-02-17T20:17:35.468Z,9.63
2023-02-17T20:20:03.789Z,9.56
2023-02-17T20:22:31.887Z,9.52
2023-02-17T20:24:59.955Z,9.48
2023-02-17T20:27:28.123Z,9.42
2023-02-17T20:29:56.245Z,9.38
2023-02-17T20:32:26.150Z,9.36
2023-02-17T20:34:54.321Z,9.34
2023-02-17T20:37:22.392Z,9.31
2023-02-17T20:39:50.518Z,9.27
2023-02-17T20:42:18.610Z,9.23
2023-02-17T20:44:48.880Z,9.23
2023-02-17T20:47:17.389Z,9.18
2023-02-17T20:49:46.900Z,9.18
2023-02-17T20:52:15.199Z,9.18
2023-02-17T20:54:44.586Z,9.13
2023-02-17T20:57:15.251Z,9.11
2023-02-17T20:59:43.438Z,9.10
2023-02-17T21:02:11.763Z,9.13
2023-02-17T21:04:39.833Z,9.11
2023-02-17T21:07:10.626Z,9.11
2023-02-17T21:09:38.702Z,9.10
2023-02-17T21:12:07.897Z,9.09
2023-02-17T21:14:35.987Z,9.09
2023-02-17T21:17:04.078Z,9.06
2023-02-17T21:19:32.993Z,9.03
2023-02-17T21:22:01.056Z,8.99
2023-02-17T21:24:30.536Z,8.94
2023-02-17T21:26:58.957Z,8.91
2023-02-17T21:29:27.054Z,8.90
2023-02-17T21:31:55.250Z,8.91
2023-02-17T21:34:23.429Z,8.92
2023-02-17T21:36:51.620Z,8.94
2023-02-17T21:39:21.310Z,8.90
2023-02-17T21:41:51.220Z,8.86
2023-02-17T21:44:36.400Z,8.83
2023-02-17T21:47:04.583Z,8.82
2023-02-17T21:49:32.698Z,8.79
2023-02-17T21:52:01.081Z,8.75
2023-02-17T21:54:29.378Z,8.73
2023-02-17T21:56:58.791Z,8.72
2023-02-17T21:59:26.856Z,8.69
2023-02-17T22:01:54.959Z,8.64
2023-02-17T22:04:23.868Z,8.59
2023-02-17T22:06:52.317Z,8.59
2023-02-17T22:09:20.411Z,8.61
2023-02-17T22:11:49.546Z,8.61
2023-02-17T22:14:19.690Z,8.59
2023-02-17T22:16:48.145Z,8.55
2023-02-17T22:19:17.598Z,8.52
2023-02-17T22:21:45.816Z,8.44
2023-02-17T22:24:14.127Z,8.37
2023-02-17T22:26:42.233Z,8.29
2023-02-17T22:29:10.310Z,8.25
2023-02-17T22:31:39.836Z,8.17
2023-02-17T22:34:09.867Z,8.09
2023-02-17T22:36:38.104Z,8.07
2023-02-17T22:39:07.201Z,7.97
2023-02-17T22:41:35.584Z,7.94
2023-02-17T22:44:03.890Z,7.98
2023-02-17T22:46:32.328Z,7.99
2023-02-17T22:49:01.944Z,8.01
2023-02-17T22:51:31.220Z,7.99
2023-02-17T22:53:59.325Z,8.03
2023-02-17T22:56:27.483Z,8.01
2023-02-17T22:59:00.837Z,7.97
2023-02-17T23:01:30.413Z,7.96
2023-02-17T23:03:58.465Z,7.93
2023-02-17T23:06:29.621Z,7.86
2023-02-17T23:08:58.014Z,7.82
2023-02-17T23:11:44.497Z,7.79
2023-02-17T23:14:13.179Z,7.74
2023-02-17T23:16:41.679Z,7.68
2023-02-17T23:19:10.252Z,7.57
2023-02-17T23:21:39.722Z,7.52
2023-02-17T23:24:08.313Z,7.50
2023-02-17T23:26:36.405Z,7.51
2023-02-17T23:29:04.832Z,7.51
2023-02-17T23:31:33.041Z,7.52
2023-02-17T23:34:01.143Z,7.55
2023-02-17T23:36:29.214Z,7.58
2023-02-17T23:38:59.921Z,7.58
2023-02-17T23:41:28.177Z,7.61
2023-02-17T23:43:56.593Z,7.61
2023-02-17T23:46:24.927Z,7.59
2023-02-17T23:48:53.063Z,7.60
2023-02-17T23:51:21.209Z,7.63
2023-02-17T23:53:49.569Z,7.63
2023-02-17T23:56:20.933Z,7.64
2023-02-17T23:58:49.066Z,7.67
